createdAt,value
2022-10-12T00:00:00.411Z,101376.34
2022-10-12T00:02:27.596Z,101364.78
2022-10-12T00:04:54.846Z,101368.38
2022-10-12T00:07:21.961Z,101372.00
2022-10-12T00:09:49.120Z,101369.31
2022-10-12T00:12:16.218Z,101370.41
2022-10-12T00:14:43.373Z,101374.13
2022-10-12T00:17:10.876Z,101360.88
2022-10-12T00:19:39.096Z,101366.31
2022-10-12T00:22:06.493Z,101367.19
2022-10-12T00:24:33.878Z,101372.38
2022-10-12T00:27:01.057Z,101373.38
2022-10-12T00:29:28.683Z,101372.63
2022-10-12T00:31:55.916Z,101372.72
2022-10-12T00:34:23.061Z,101370.81
2022-10-12T00:36:50.356Z,101363.63
2022-10-12T00:39:17.721Z,101360.94
2022-10-12T00:41:45.076Z,101365.53
2022-10-12T00:44:50.717Z,101363.03
2022-10-12T00:47:24.055Z,101363.03
2022-10-12T00:49:56.638Z,101365.00
2022-10-12T00:52:27.953Z,101364.13
2022-10-12T00:54:55.611Z,101368.53
2022-10-12T00:57:23.858Z,101359.69
2022-10-12T00:59:54.773Z,101365.78
2022-10-12T01:02:23.707Z,101356.94
2022-10-12T01:04:55.865Z,101361.41
2022-10-12T01:07:23.413Z,101360.66
2022-10-12T01:09:51.166Z,101358.22
2022-10-12T01:12:19.400Z,101367.09
2022-10-12T01:14:46.672Z,101361.75
2022-10-12T01:17:14.035Z,101364.56
2022-10-12T01:19:44.132Z,101364.50
2022-10-12T01:22:17.163Z,101366.22
2022-10-12T01:25:00.308Z,101355.44
2022-10-12T01:27:47.800Z,101357.97
2022-10-12T01:30:15.282Z,101357.97
2022-10-12T01:33:01.050Z,101353.72
2022-10-12T01:35:39.528Z,101354.03
2022-10-12T01:38:15.780Z,101352.44
2022-10-12T01:40:42.995Z,101355.94
2022-10-12T01:43:10.334Z,101351.34
2022-10-12T01:45:37.691Z,101356.88
2022-10-12T01:48:05.590Z,101352.28
2022-10-12T01:50:40.100Z,101362.56
2022-10-12T01:53:22.640Z,101361.63
2022-10-12T01:55:55.806Z,101361.34
2022-10-12T01:58:26.171Z,101360.34
2022-10-12T02:00:58.448Z,101358.34
2022-10-12T02:03:31.301Z,101363.69
2022-10-12T02:06:05.824Z,101363.69
2022-10-12T02:08:49.019Z,101367.19
2022-10-12T02:11:17.907Z,101368.81
2022-10-12T02:13:48.295Z,101358.34
2022-10-12T02:16:18.911Z,101363.72
2022-10-12T02:18:48.257Z,101361.88
2022-10-12T02:21:18.882Z,101360.00
2022-10-12T02:23:47.833Z,101358.31
2022-10-12T02:26:15.824Z,101355.09
2022-10-12T02:28:45.290Z,101354.09
2022-10-12T02:31:23.377Z,101356.03
2022-10-12T02:33:57.808Z,101347.13
2022-10-12T02:36:48.403Z,101349.72
2022-10-12T02:39:22.077Z,101341.63
2022-10-12T02:41:55.077Z,101348.00
2022-10-12T02:44:26.436Z,101346.38
2022-10-12T02:46:54.716Z,101341.22
2022-10-12T02:49:24.490Z,101337.94
2022-10-12T02:51:51.924Z,101333.34
2022-10-12T02:54:20.204Z,101336.03
2022-10-12T02:56:48.026Z,101343.22
2022-10-12T02:59:15.987Z,101341.34
2022-10-12T03:01:43.567Z,101350.34
2022-10-12T03:04:12.653Z,101338.78
2022-10-12T03:06:40.223Z,101349.47
2022-10-12T03:09:07.683Z,101337.03
2022-10-12T03:11:35.023Z,101339.81
2022-10-12T03:14:02.326Z,101342.56
2022-10-12T03:16:29.688Z,101339.94
2022-10-12T03:18:56.831Z,101338.28
2022-10-12T03:21:24.050Z,101343.25
2022-10-12T03:23:51.547Z,101337.00
2022-10-12T03:26:18.729Z,101341.50
2022-10-12T03:28:46.046Z,101338.75
2022-10-12T03:31:13.667Z,101328.22
2022-10-12T03:33:40.926Z,101335.25
2022-10-12T03:36:08.533Z,101333.50
2022-10-12T03:38:35.721Z,101338.06
2022-10-12T03:41:06.584Z,101330.78
2022-10-12T03:43:34.645Z,101340.69
2022-10-12T03:46:01.898Z,101345.06
2022-10-12T03:48:29.228Z,101343.44
2022-10-12T03:50:56.524Z,101338.25
2022-10-12T03:53:23.748Z,101345.44
2022-10-12T03:55:51.045Z,101344.22
2022-10-12T03:58:18.765Z,101351.06
2022-10-12T04:00:46.009Z,101343.28
2022-10-12T04:03:13.325Z,101344.56
2022-10-12T04:05:40.977Z,101346.00
2022-10-12T04:08:08.205Z,101340.84
2022-10-12T04:10:35.445Z,101345.16
2022-10-12T04:13:02.634Z,101346.97
2022-10-12T04:15:30.066Z,101344.94
2022-10-12T04:17:57.221Z,101340.19
2022-10-12T04:20:24.413Z,101332.03
2022-10-12T04:22:51.633Z,101338.97
2022-10-12T04:25:18.885Z,101332.66
2022-10-12T04:27:46.043Z,101340.03
2022-10-12T04:30:13.425Z,101341.69
2022-10-12T04:32:40.642Z,101338.78
2022-10-12T04:35:07.972Z,101343.28
2022-10-12T04:37:35.271Z,101340.72
2022-10-12T04:40:03.320Z,101339.22
2022-10-12T04:42:30.470Z,101341.59
2022-10-12T04:44:57.874Z,101346.78
2022-10-12T04:47:25.225Z,101344.28
2022-10-12T04:49:52.596Z,101340.50
2022-10-12T04:52:19.831Z,101341.25
2022-10-12T04:54:47.299Z,101346.69
2022-10-12T04:57:14.452Z,101346.72
2022-10-12T04:59:41.701Z,101351.56
2022-10-12T05:02:08.890Z,101342.56
2022-10-12T05:04:36.107Z,101347.09
2022-10-12T05:07:03.338Z,101346.13
2022-10-12T05:09:30.633Z,101355.91
2022-10-12T05:11:57.876Z,101348.56
2022-10-12T05:14:25.037Z,101347.59
2022-10-12T05:16:52.333Z,101350.34
2022-10-12T05:19:19.562Z,101353.09
2022-10-12T05:21:46.794Z,101353.03
2022-10-12T05:24:14.117Z,101357.59
2022-10-12T05:26:41.340Z,101363.09
2022-10-12T05:29:09.367Z,101366.53
2022-10-12T05:31:36.559Z,101371.94
2022-10-12T05:34:03.671Z,101365.66
2022-10-12T05:36:30.824Z,101363.78
2022-10-12T05:38:57.964Z,101362.91
2022-10-12T05:41:25.229Z,101363.09
2022-10-12T05:43:53.650Z,101363.69
2022-10-12T05:46:23.021Z,101367.19
2022-10-12T05:48:50.165Z,101367.03
2022-10-12T05:51:17.365Z,101371.44
2022-10-12T05:53:44.541Z,101369.56
2022-10-12T05:56:11.776Z,101378.44
2022-10-12T05:58:38.937Z,101375.59
2022-10-12T06:01:10.821Z,101377.34
2022-10-12T06:03:38.241Z,101378.19
2022-10-12T06:06:06.982Z,101380.81
2022-10-12T06:08:34.399Z,101387.59
2022-10-12T06:11:01.729Z,101385.69
2022-10-12T06:13:28.990Z,101393.66
2022-10-12T06:15:56.171Z,101390.03
2022-10-12T06:18:23.409Z,101395.22
2022-10-12T06:21:03.991Z,101394.47
2022-10-12T06:23:39.588Z,101402.44
2022-10-12T06:26:06.978Z,101403.38
2022-10-12T06:28:34.221Z,101406.56
2022-10-12T06:31:01.717Z,101407.25
2022-10-12T06:33:28.949Z,101416.47
2022-10-12T06:35:56.531Z,101409.97
2022-10-12T06:38:24.122Z,101419.50
2022-10-12T06:40:53.469Z,101416.72
2022-10-12T06:43:22.790Z,101415.84
2022-10-12T06:45:50.515Z,101417.38
2022-10-12T06:48:18.886Z,101413.66
2022-10-12T06:50:46.668Z,101425.00
2022-10-12T06:53:13.976Z,101429.28
2022-10-12T06:55:41.325Z,101427.22
2022-10-12T06:58:08.567Z,101433.19
2022-10-12T07:00:36.435Z,101432.00
2022-10-12T07:03:05.371Z,101422.72
2022-10-12T07:05:32.702Z,101420.72
2022-10-12T07:07:59.836Z,101421.44
2022-10-12T07:10:28.236Z,101424.72
2022-10-12T07:12:55.505Z,101429.84
2022-10-12T07:15:22.632Z,101430.56
2022-10-12T07:17:50.106Z,101433.06
2022-10-12T07:20:17.422Z,101438.38
2022-10-12T07:22:44.739Z,101440.22
2022-10-12T07:25:11.937Z,101442.47
2022-10-12T07:27:39.469Z,101439.41
2022-10-12T07:30:07.420Z,101435.94
2022-10-12T07:32:34.664Z,101434.63
2022-10-12T07:35:01.830Z,101432.72
2022-10-12T07:37:29.023Z,101434.59
2022-10-12T07:39:57.696Z,101435.28
2022-10-12T07:42:25.437Z,101430.72
2022-10-12T07:44:52.901Z,101441.38
2022-10-12T07:47:20.146Z,101433.91
2022-10-12T07:49:47.664Z,101418.81
2022-10-12T07:52:14.824Z,101419.91
2022-10-12T07:54:42.082Z,101418.06
2022-10-12T07:57:09.460Z,101424.22
2022-10-12T07:59:36.647Z,101421.34
2022-10-12T08:02:03.849Z,101428.91
2022-10-12T08:04:31.104Z,101425.97
2022-10-12T08:06:59.610Z,101428.84
2022-10-12T08:09:26.828Z,101432.50
2022-10-12T08:11:54.021Z,101431.38
2022-10-12T08:14:21.108Z,101429.81
2022-10-12T08:16:51.552Z,101430.44
2022-10-12T08:19:18.902Z,101429.09
2022-10-12T08:21:46.016Z,101432.34
2022-10-12T08:24:13.544Z,101434.09
2022-10-12T08:26:42.380Z,101421.56
2022-10-12T08:29:09.981Z,101426.22
2022-10-12T08:31:37.207Z,101420.78
2022-10-12T08:34:04.640Z,101417.94
2022-10-12T08:36:31.877Z,101415.13
2022-10-12T08:38:59.560Z,101416.56
2022-10-12T08:41:47.056Z,101410.53
2022-10-12T08:44:28.576Z,101412.06
2022-10-12T08:47:00.294Z,101409.47
2022-10-12T08:49:30.380Z,101412.66
2022-10-12T08:51:59.121Z,101405.97
2022-10-12T08:54:31.897Z,101408.41
2022-10-12T08:56:59.942Z,101407.03
2022-10-12T08:59:28.440Z,101408.88
2022-10-12T09:02:04.468Z,101406.28
2022-10-12T09:04:31.638Z,101406.06
2022-10-12T09:07:01.969Z,101408.19
2022-10-12T09:09:44.034Z,101405.59
2022-10-12T09:12:17.524Z,101394.09
2022-10-12T09:14:45.417Z,101407.78
2022-10-12T09:17:22.712Z,101402.22
2022-10-12T09:20:00.685Z,101397.59
2022-10-12T09:22:28.535Z,101401.66
2022-10-12T09:24:57.382Z,101403.31
2022-10-12T09:27:27.448Z,101400.69
2022-10-12T09:29:58.060Z,101403.44
2022-10-12T09:32:33.186Z,101409.56
2022-10-12T09:35:01.149Z,101409.06
2022-10-12T09:37:30.282Z,101400.91
2022-10-12T09:39:57.981Z,101401.88
2022-10-12T09:42:25.290Z,101400.81
2022-10-12T09:45:03.296Z,101398.69
2022-10-12T09:47:33.142Z,101400.81
2022-10-12T09:50:02.269Z,101400.63
2022-10-12T09:52:35.278Z,101395.72
2022-10-12T09:55:05.725Z,101400.59
2022-10-12T09:57:37.587Z,101405.03
2022-10-12T10:00:06.613Z,101403.72
2022-10-12T10:02:48.898Z,101397.75
2022-10-12T10:05:50.566Z,101399.81
2022-10-12T10:08:19.987Z,101397.66
2022-10-12T10:10:51.376Z,101394.22
2022-10-12T10:13:19.346Z,101396.16
2022-10-12T10:15:48.803Z,101385.72
2022-10-12T10:18:30.229Z,101389.56
2022-10-12T10:20:58.504Z,101395.06
2022-10-12T10:23:28.723Z,101394.00
2022-10-12T10:26:01.803Z,101393.84
2022-10-12T10:28:30.401Z,101395.31
2022-10-12T10:31:03.114Z,101405.06
2022-10-12T10:33:31.569Z,101393.31
2022-10-12T10:36:07.704Z,101398.72
2022-10-12T10:38:54.679Z,101391.47
2022-10-12T10:41:25.191Z,101393.19
2022-10-12T10:43:52.396Z,101398.31
2022-10-12T10:46:29.249Z,101394.38
2022-10-12T10:48:58.937Z,101397.56
2022-10-12T10:51:40.451Z,101400.72
2022-10-12T10:54:24.712Z,101396.88
2022-10-12T10:56:53.689Z,101396.66
2022-10-12T10:59:29.049Z,101393.00
2022-10-12T11:01:58.849Z,101390.38
2022-10-12T11:04:35.185Z,101391.34
2022-10-12T11:07:15.630Z,101393.03
2022-10-12T11:09:47.554Z,101396.50
2022-10-12T11:12:21.434Z,101384.75
2022-10-12T11:14:53.925Z,101396.47
2022-10-12T11:17:34.768Z,101392.03
2022-10-12T11:20:13.623Z,101385.53
2022-10-12T11:22:44.327Z,101380.34
2022-10-12T11:25:20.860Z,101382.84
2022-10-12T11:27:52.783Z,101386.13
2022-10-12T11:30:26.303Z,101380.69
2022-10-12T11:32:53.691Z,101385.25
2022-10-12T11:35:25.276Z,101374.59
2022-10-12T11:38:00.494Z,101378.38
2022-10-12T11:40:55.514Z,101369.09
2022-10-12T11:43:26.641Z,101374.72
2022-10-12T11:45:56.408Z,101365.41
2022-10-12T11:48:27.399Z,101363.19
2022-10-12T11:50:59.969Z,101367.34
2022-10-12T11:53:34.947Z,101360.97
2022-10-12T11:56:02.331Z,101365.09
2022-10-12T11:58:48.737Z,101364.13
2022-10-12T12:01:20.232Z,101356.56
2022-10-12T12:04:17.144Z,101353.41
2022-10-12T12:06:51.376Z,101339.75
2022-10-12T12:09:42.490Z,101336.97
2022-10-12T12:12:13.803Z,101343.16
2022-10-12T12:14:46.623Z,101336.44
2022-10-12T12:17:20.209Z,101333.28
2022-10-12T12:19:51.733Z,101333.44
2022-10-12T12:22:19.042Z,101334.63
2022-10-12T12:24:58.638Z,101332.41
2022-10-12T12:27:31.746Z,101332.78
2022-10-12T12:30:02.511Z,101327.38
2022-10-12T12:32:45.036Z,101323.69
2022-10-12T12:35:22.801Z,101315.56
2022-10-12T12:38:00.123Z,101313.03
2022-10-12T12:40:27.800Z,101323.97
2022-10-12T12:43:14.911Z,101313.25
2022-10-12T12:45:52.957Z,101316.50
2022-10-12T12:48:38.674Z,101305.66
2022-10-12T12:51:11.658Z,101305.09
2022-10-12T12:53:40.873Z,101304.31
2022-10-12T12:56:18.570Z,101291.25
2022-10-12T12:58:58.621Z,101301.88
2022-10-12T13:01:44.938Z,101300.75
2022-10-12T13:04:28.781Z,101300.91
2022-10-12T13:07:32.075Z,101301.78
2022-10-12T13:09:59.674Z,101294.25
2022-10-12T13:12:32.870Z,101295.69
2022-10-12T13:15:18.953Z,101291.03
2022-10-12T13:17:57.629Z,101285.34
2022-10-12T13:20:26.836Z,101280.78
2022-10-12T13:22:54.885Z,101279.72
2022-10-12T13:25:33.078Z,101285.50
2022-10-12T13:28:02.769Z,101284.25
2022-10-12T13:30:35.767Z,101281.44
2022-10-12T13:33:09.669Z,101285.69
2022-10-12T13:35:39.196Z,101280.03
2022-10-12T13:38:17.845Z,101277.06
2022-10-12T13:40:51.654Z,101275.09
2022-10-12T13:43:27.860Z,101275.88
2022-10-12T13:45:55.848Z,101275.88
2022-10-12T13:48:46.527Z,101273.94
2022-10-12T13:51:25.529Z,101271.31
2022-10-12T13:53:53.554Z,101266.41
2022-10-12T13:56:23.285Z,101260.41
2022-10-12T13:58:58.225Z,101259.53
2022-10-12T14:01:26.131Z,101265.81
2022-10-12T14:04:01.941Z,101271.84
2022-10-12T14:06:31.048Z,101270.66
2022-10-12T14:09:01.642Z,101262.00
2022-10-12T14:11:29.177Z,101270.81
2022-10-12T14:13:56.824Z,101261.59
2022-10-12T14:16:25.914Z,101264.13
2022-10-12T14:18:53.105Z,101261.50
2022-10-12T14:21:22.461Z,101258.88
2022-10-12T14:23:54.372Z,101249.88
2022-10-12T14:26:26.650Z,101250.94
2022-10-12T14:28:54.157Z,101257.44
2022-10-12T14:31:40.250Z,101243.41
2022-10-12T14:34:32.216Z,101249.28
2022-10-12T14:37:04.407Z,101258.44
2022-10-12T14:39:32.053Z,101258.44
2022-10-12T14:42:02.514Z,101265.72
2022-10-12T14:44:30.257Z,101257.91
2022-10-12T14:47:02.592Z,101264.59
2022-10-12T14:49:40.348Z,101257.75
2022-10-12T14:52:14.749Z,101258.78
2022-10-12T14:54:42.049Z,101251.72
2022-10-12T14:57:12.919Z,101247.28
2022-10-12T14:59:40.660Z,101245.66
2022-10-12T15:02:15.730Z,101252.13
2022-10-12T15:04:42.937Z,101252.44
2022-10-12T15:07:23.556Z,101256.13
2022-10-12T15:09:51.522Z,101248.84
2022-10-12T15:12:20.042Z,101247.97
2022-10-12T15:14:47.424Z,101251.47
2022-10-12T15:17:15.528Z,101252.44
2022-10-12T15:19:43.777Z,101241.69
2022-10-12T15:22:19.279Z,101248.19
2022-10-12T15:24:47.032Z,101241.31
2022-10-12T15:27:14.739Z,101246.84
2022-10-12T15:29:42.689Z,101234.16
2022-10-12T15:32:11.530Z,101241.53
2022-10-12T15:34:39.249Z,101243.53
2022-10-12T15:37:09.266Z,101245.56
2022-10-12T15:39:36.830Z,101246.78
2022-10-12T15:42:05.039Z,101245.16
2022-10-12T15:44:39.096Z,101242.56
2022-10-12T15:47:06.329Z,101248.25
2022-10-12T15:49:33.484Z,101241.78
2022-10-12T15:52:00.798Z,101241.78
2022-10-12T15:54:27.981Z,101250.88
2022-10-12T15:56:55.416Z,101255.50
2022-10-12T15:59:22.801Z,101251.16
2022-10-12T16:01:49.966Z,101246.03
2022-10-12T16:04:17.815Z,101245.34
2022-10-12T16:06:45.011Z,101247.38
2022-10-12T16:09:12.213Z,101246.72
2022-10-12T16:11:39.453Z,101243.31
2022-10-12T16:14:07.100Z,101247.09
2022-10-12T16:16:34.346Z,101240.81
2022-10-12T16:19:01.424Z,101250.06
2022-10-12T16:21:28.575Z,101249.41
2022-10-12T16:23:55.761Z,101259.63
2022-10-12T16:26:23.068Z,101255.47
2022-10-12T16:28:50.333Z,101259.25
2022-10-12T16:31:18.160Z,101263.00
2022-10-12T16:33:45.561Z,101256.03
2022-10-12T16:36:14.433Z,101257.09
2022-10-12T16:38:42.140Z,101255.34
2022-10-12T16:41:14.068Z,101256.38
2022-10-12T16:43:41.249Z,101256.59
2022-10-12T16:46:08.901Z,101259.50
2022-10-12T16:48:36.247Z,101255.09
2022-10-12T16:51:07.938Z,101257.09
2022-10-12T16:53:35.321Z,101260.00
2022-10-12T16:56:03.139Z,101258.44
2022-10-12T16:58:30.318Z,101262.19
2022-10-12T17:00:57.444Z,101264.13
2022-10-12T17:03:25.007Z,101270.50
2022-10-12T17:06:34.823Z,101274.25
2022-10-12T17:09:01.936Z,101276.25
2022-10-12T17:11:29.080Z,101273.66
2022-10-12T17:13:57.067Z,101280.91
2022-10-12T17:16:42.853Z,101281.16
2022-10-12T17:19:10.013Z,101288.50
2022-10-12T17:21:41.966Z,101284.16
2022-10-12T17:24:10.079Z,101294.09
2022-10-12T17:26:40.247Z,101297.00
2022-10-12T17:29:09.387Z,101297.56
2022-10-12T17:31:38.476Z,101300.91
2022-10-12T17:34:07.182Z,101304.38
2022-10-12T17:36:34.782Z,101306.47
2022-10-12T17:39:02.009Z,101314.69
2022-10-12T17:41:29.533Z,101314.25
2022-10-12T17:43:57.614Z,101309.97
2022-10-12T17:46:24.965Z,101314.34
2022-10-12T17:48:52.111Z,101313.13
2022-10-12T17:51:19.483Z,101328.47
2022-10-12T17:53:46.778Z,101327.69
2022-10-12T17:56:14.670Z,101327.69
2022-10-12T17:58:42.377Z,101323.41
2022-10-12T18:01:13.921Z,101328.13
2022-10-12T18:03:42.838Z,101331.16
2022-10-12T18:06:11.437Z,101331.97
2022-10-12T18:08:39.074Z,101340.09
2022-10-12T18:11:06.917Z,101331.25
2022-10-12T18:13:35.113Z,101332.31
2022-10-12T18:16:03.244Z,101337.09
2022-10-12T18:18:30.370Z,101331.94
2022-10-12T18:20:57.525Z,101337.44
2022-10-12T18:23:24.706Z,101332.13
2022-10-12T18:25:51.955Z,101325.91
2022-10-12T18:28:19.196Z,101327.97
2022-10-12T18:30:49.708Z,101324.56
2022-10-12T18:33:17.258Z,101326.72
2022-10-12T18:35:44.354Z,101325.00
2022-10-12T18:38:11.529Z,101334.94
2022-10-12T18:40:42.225Z,101324.22
2022-10-12T18:43:10.088Z,101332.63
2022-10-12T18:45:43.822Z,101327.22
2022-10-12T18:48:11.719Z,101328.44
2022-10-12T18:50:38.884Z,101326.84
2022-10-12T18:53:06.052Z,101335.75
2022-10-12T18:55:36.662Z,101337.41
2022-10-12T18:58:03.898Z,101337.56
2022-10-12T19:00:31.563Z,101342.75
2022-10-12T19:02:58.923Z,101339.31
2022-10-12T19:05:26.129Z,101348.38
2022-10-12T19:07:53.407Z,101351.09
2022-10-12T19:10:20.884Z,101348.84
2022-10-12T19:12:48.152Z,101350.84
2022-10-12T19:15:15.794Z,101351.09
2022-10-12T19:17:43.100Z,101343.75
2022-10-12T19:20:10.418Z,101342.91
2022-10-12T19:22:44.944Z,101345.59
2022-10-12T19:25:12.125Z,101350.97
2022-10-12T19:27:39.379Z,101345.69
2022-10-12T19:30:09.767Z,101336.19
2022-10-12T19:32:37.235Z,101352.81
2022-10-12T19:35:05.123Z,101348.66
2022-10-12T19:37:32.604Z,101353.38
2022-10-12T19:40:03.921Z,101350.88
2022-10-12T19:42:33.912Z,101356.75
2022-10-12T19:45:04.434Z,101359.63
2022-10-12T19:47:32.287Z,101358.38
2022-10-12T19:49:59.445Z,101356.16
2022-10-12T19:52:26.592Z,101363.91
2022-10-12T19:54:55.833Z,101369.53
2022-10-12T19:57:25.540Z,101365.88
2022-10-12T19:59:52.697Z,101360.72
2022-10-12T20:02:20.145Z,101362.84
2022-10-12T20:04:53.741Z,101368.75
2022-10-12T20:07:21.323Z,101374.22
2022-10-12T20:09:48.625Z,101371.81
2022-10-12T20:12:16.001Z,101365.47
2022-10-12T20:14:43.372Z,101375.53
2022-10-12T20:17:10.548Z,101372.25
2022-10-12T20:19:37.667Z,101383.38
2022-10-12T20:22:04.856Z,101383.88
2022-10-12T20:24:31.971Z,101384.72
2022-10-12T20:26:59.219Z,101383.09
2022-10-12T20:29:26.436Z,101375.09
2022-10-12T20:31:53.569Z,101379.59
2022-10-12T20:34:20.673Z,101382.94
2022-10-12T20:36:47.805Z,101382.28
2022-10-12T20:39:14.901Z,101380.06
2022-10-12T20:41:42.503Z,101381.22
2022-10-12T20:44:10.149Z,101387.63
2022-10-12T20:46:37.304Z,101386.94
2022-10-12T20:49:04.921Z,101392.47
2022-10-12T20:51:36.229Z,101397.16
2022-10-12T20:54:05.191Z,101397.41
2022-10-12T20:56:33.160Z,101395.72
2022-10-12T20:59:00.416Z,101394.94
2022-10-12T21:01:28.356Z,101397.47
2022-10-12T21:03:55.659Z,101403.00
2022-10-12T21:06:23.623Z,101403.19
2022-10-12T21:08:55.100Z,101409.69
2022-10-12T21:11:22.617Z,101410.75
2022-10-12T21:13:49.906Z,101404.63
2022-10-12T21:16:17.634Z,101410.09
2022-10-12T21:18:44.824Z,101414.69
2022-10-12T21:21:16.198Z,101412.16
2022-10-12T21:23:44.360Z,101418.72
2022-10-12T21:26:21.680Z,101409.31
2022-10-12T21:28:49.253Z,101416.72
2022-10-12T21:31:16.697Z,101413.31
2022-10-12T21:33:44.179Z,101422.22
2022-10-12T21:36:12.836Z,101415.06
2022-10-12T21:38:40.491Z,101408.97
2022-10-12T21:41:08.355Z,101407.22
2022-10-12T21:43:36.156Z,101408.97
2022-10-12T21:46:04.699Z,101406.47
2022-10-12T21:48:32.287Z,101419.06
2022-10-12T21:51:01.427Z,101410.94
2022-10-12T21:53:28.929Z,101409.31
2022-10-12T21:55:56.213Z,101408.66
2022-10-12T21:58:23.753Z,101413.13
2022-10-12T22:00:51.064Z,101408.66
2022-10-12T22:03:18.159Z,101406.13
2022-10-12T22:05:45.263Z,101414.03
2022-10-12T22:08:13.379Z,101408.88
2022-10-12T22:10:40.876Z,101411.56
2022-10-12T22:13:08.239Z,101413.31
2022-10-12T22:15:35.746Z,101409.06
2022-10-12T22:18:11.924Z,101401.25
2022-10-12T22:20:39.237Z,101407.81
2022-10-12T22:23:07.363Z,101411.50
2022-10-12T22:25:34.574Z,101408.75
2022-10-12T22:28:01.757Z,101408.75
2022-10-12T22:30:29.810Z,101403.38
2022-10-12T22:32:57.268Z,101403.81
2022-10-12T22:35:24.554Z,101406.44
2022-10-12T22:37:51.931Z,101405.50
2022-10-12T22:40:19.141Z,101398.56
2022-10-12T22:42:46.418Z,101405.88
2022-10-12T22:45:14.730Z,101406.81
2022-10-12T22:47:41.917Z,101397.88
2022-10-12T22:50:10.505Z,101400.63
2022-10-12T22:52:37.643Z,101402.59
2022-10-12T22:55:05.050Z,101394.59
2022-10-12T22:57:32.279Z,101399.97
2022-10-12T22:59:59.499Z,101399.03
2022-10-12T23:02:29.391Z,101395.41
2022-10-12T23:04:56.942Z,101396.28
2022-10-12T23:07:24.601Z,101395.53
2022-10-12T23:09:51.943Z,101394.81
2022-10-12T23:12:19.334Z,101393.16
2022-10-12T23:14:46.815Z,101399.31
2022-10-12T23:17:13.994Z,101394.91
2022-10-12T23:19:41.237Z,101387.72
2022-10-12T23:22:09.216Z,101395.78
2022-10-12T23:24:36.445Z,101393.41
2022-10-12T23:27:04.165Z,101397.03
2022-10-12T23:29:33.171Z,101399.81
2022-10-12T23:32:00.357Z,101396.53
2022-10-12T23:34:27.845Z,101399.75
2022-10-12T23:36:55.028Z,101403.28
2022-10-12T23:39:22.614Z,101404.44
2022-10-12T23:41:49.899Z,101407.25
2022-10-12T23:44:17.570Z,101406.25
2022-10-12T23:46:44.754Z,101412.78
2022-10-12T23:49:12.013Z,101409.34
2022-10-12T23:51:39.413Z,101413.56
2022-10-12T23:54:06.571Z,101400.69
2022-10-12T23:56:33.945Z,101405.47
2022-10-12T23:59:01.744Z,101408.06
